»·PEaware :: WAT380 KSJC-KSAN

WAT380 :: KSJC-KSAN

FLIGHT INFORMATION

Flight Status: Arrived
Operator:
Walker Air Transport
More flights by this operator :: More flights under this callsign
Pilot: Spencer M. (27733)
Aircraft: BEECH AIRCRAFT BEECH AIRLINER
(B190)
More flights by this aircraft type
Origin: KSJC Mineta San Jose Intl
United States
Destination: KSAN San Diego Intl-Lindbergh
United States
More flights between these airports :: More routes between these airports
Route: V107 FIM V186 DARTS V459 SLI V23 MZB
File this flight plan on PilotEdge
Remarks:
Altitude:
(Current/Filed)
15,000ft
Speed:
(Current/Filed)
260kts
Departed: 16-Dec-20 10:12 AM
Arrived: 16-Dec-20 11:46 AM
Distance/Time
Traveled:
362nm/1:34
Distance/Time
To Go:
Arrived

Flight Plot

Page will automatically refresh every two minutes.

Flight plan parsing failed; only flown route is shown


Map Options




Map Legend


Flown Route
Filed Route
Departure Airport
Arrival Airport
Navaid (VOR, NDB)
Fix

Horizontal Profiles

Position Reports

Time Latitude Longitude Heading Altitude Ground
Speed
16-Dec-20 09:28 37.356394 -121.928011 130 67ft 0kts
16-Dec-20 09:29 37.356394 -121.928011 130 67ft 0kts
16-Dec-20 09:30 37.356394 -121.928011 130 67ft 0kts
16-Dec-20 09:31 37.356394 -121.928011 130 67ft 0kts
16-Dec-20 09:32 37.356394 -121.928011 130 67ft 0kts
16-Dec-20 09:33 37.356394 -121.928011 130 67ft 0kts
16-Dec-20 09:34 37.356394 -121.928011 130 67ft 0kts
16-Dec-20 09:35 37.356394 -121.928011 130 67ft 0kts
16-Dec-20 09:36 37.356394 -121.928011 130 67ft 0kts
16-Dec-20 09:37 37.356394 -121.928011 130 67ft 0kts
16-Dec-20 09:38 37.356394 -121.928011 130 67ft 0kts
16-Dec-20 09:39 37.356394 -121.928011 130 67ft 0kts
16-Dec-20 09:40 37.356394 -121.928011 130 67ft 0kts
16-Dec-20 09:41 37.356394 -121.928011 130 67ft 0kts
16-Dec-20 09:42 37.356394 -121.928011 130 67ft 0kts
16-Dec-20 09:43 37.356394 -121.928011 130 67ft 0kts
16-Dec-20 09:44 37.356394 -121.928011 130 67ft 0kts
16-Dec-20 09:45 37.356394 -121.928011 130 67ft 0kts
16-Dec-20 09:47 37.356394 -121.928011 130 67ft 0kts
16-Dec-20 09:48 37.356394 -121.928011 130 67ft 0kts
16-Dec-20 09:49 37.356394 -121.928011 130 67ft 0kts
16-Dec-20 09:50 37.356394 -121.928011 130 67ft 0kts
16-Dec-20 09:51 37.356394 -121.928011 130 67ft 0kts
16-Dec-20 09:52 37.356394 -121.928011 130 67ft 0kts
16-Dec-20 09:53 37.356394 -121.928011 130 67ft 0kts
16-Dec-20 09:54 37.356394 -121.928011 130 67ft 0kts
16-Dec-20 09:55 37.356394 -121.928011 130 67ft 0kts
16-Dec-20 09:56 37.356394 -121.928011 130 67ft 0kts
16-Dec-20 09:57 37.356394 -121.928011 130 67ft 0kts
16-Dec-20 09:58 37.356394 -121.928011 130 67ft 0kts
16-Dec-20 09:59 37.356394 -121.928011 130 67ft 0kts
16-Dec-20 10:00 37.356394 -121.928011 130 67ft 0kts
16-Dec-20 10:01 37.356262 -121.927803 127 67ft 1kts
16-Dec-20 10:02 37.355842 -121.926805 136 67ft 0kts
16-Dec-20 10:02 37.356169 -121.926621 54 67ft 10kts
16-Dec-20 10:04 37.355512 -121.924005 139 67ft 10kts
16-Dec-20 10:05 37.352730 -121.920953 139 67ft 13kts
16-Dec-20 10:06 37.352104 -121.919796 64 67ft 0kts
16-Dec-20 10:06 37.352104 -121.919796 64 67ft 0kts
16-Dec-20 10:07 37.352104 -121.919796 64 67ft 0kts
16-Dec-20 10:08 37.352104 -121.919796 64 67ft 0kts
16-Dec-20 10:09 37.352104 -121.919796 64 67ft 0kts
16-Dec-20 10:10 37.353066 -121.919344 320 67ft 13kts
16-Dec-20 10:11 37.380094 -121.949289 317 989ft 197kts
16-Dec-20 10:12 37.420834 -122.003809 313 2511ft 223kts
16-Dec-20 10:13 37.462046 -122.059118 314 4140ft 214kts
16-Dec-20 10:14 37.503479 -122.053693 91 6071ft 217kts
16-Dec-20 10:15 37.489657 -121.977655 103 8000ft 228kts
16-Dec-20 10:16 37.472847 -121.900493 103 9892ft 230kts
16-Dec-20 10:17 37.449381 -121.826565 120 11794ft 228kts
16-Dec-20 10:18 37.409231 -121.763907 132 13727ft 226kts
16-Dec-20 10:19 37.364640 -121.699832 133 14998ft 266kts
16-Dec-20 10:20 37.311926 -121.624146 133 14994ft 298kts
16-Dec-20 10:21 37.252820 -121.539390 132 14993ft 303kts
16-Dec-20 10:23 37.185217 -121.442736 132 14994ft 304kts
16-Dec-20 10:23 37.138084 -121.375228 132 14994ft 304kts
16-Dec-20 10:24 37.082236 -121.295744 132 14990ft 304kts
16-Dec-20 10:25 37.025820 -121.215690 132 14991ft 305kts
16-Dec-20 10:26 36.968381 -121.134348 132 15003ft 305kts
16-Dec-20 10:27 36.912122 -121.054890 132 15023ft 305kts
16-Dec-20 10:28 36.855776 -120.975517 132 15021ft 305kts
16-Dec-20 10:29 36.799442 -120.896348 132 15026ft 305kts
16-Dec-20 10:30 36.743037 -120.817232 132 15027ft 306kts
16-Dec-20 10:31 36.678237 -120.750531 150 15028ft 303kts
16-Dec-20 10:32 36.606363 -120.695766 150 15053ft 303kts
16-Dec-20 10:33 36.534372 -120.641224 150 15045ft 304kts
16-Dec-20 10:34 36.462290 -120.586734 150 15038ft 303kts
16-Dec-20 10:35 36.390235 -120.532377 150 15038ft 303kts
16-Dec-20 10:36 36.318342 -120.478263 150 15039ft 303kts
16-Dec-20 10:37 36.246192 -120.424070 150 15012ft 304kts
16-Dec-20 10:38 36.173797 -120.369832 150 15003ft 303kts
16-Dec-20 10:39 36.101793 -120.315976 150 15000ft 302kts
16-Dec-20 10:40 36.029785 -120.262251 150 15000ft 302kts
16-Dec-20 10:41 35.957888 -120.208723 150 14995ft 302kts
16-Dec-20 10:42 35.885731 -120.155117 150 14985ft 303kts
16-Dec-20 10:43 35.813892 -120.101858 150 14986ft 302kts
16-Dec-20 10:44 35.742011 -120.048688 150 15033ft 302kts
16-Dec-20 10:45 35.669864 -119.995436 150 15019ft 303kts
16-Dec-20 10:46 35.599927 -119.937775 146 15018ft 303kts
16-Dec-20 10:47 35.531019 -119.878180 145 15018ft 303kts
16-Dec-20 10:48 35.462411 -119.818930 145 14999ft 303kts
16-Dec-20 10:49 35.393229 -119.759334 145 14972ft 304kts
16-Dec-20 10:50 35.325233 -119.700872 145 15000ft 303kts
16-Dec-20 10:51 35.259876 -119.644812 145 15002ft 303kts
16-Dec-20 10:52 35.190824 -119.585697 145 15002ft 303kts
16-Dec-20 10:53 35.121792 -119.526713 145 15003ft 302kts
16-Dec-20 10:54 35.052879 -119.467971 145 15004ft 304kts
16-Dec-20 10:55 34.983092 -119.408595 145 15004ft 306kts
16-Dec-20 10:56 34.913256 -119.349307 146 15004ft 307kts
16-Dec-20 10:57 34.843107 -119.289886 146 14987ft 307kts
16-Dec-20 10:58 34.773301 -119.230872 146 14959ft 306kts
16-Dec-20 10:59 34.703307 -119.171832 146 14971ft 306kts
16-Dec-20 11:00 34.633645 -119.113189 146 14970ft 303kts
16-Dec-20 11:01 34.565132 -119.055625 145 14971ft 298kts
16-Dec-20 11:02 34.497193 -118.998668 145 14998ft 297kts
16-Dec-20 11:03 34.429015 -118.941624 145 15012ft 298kts
16-Dec-20 11:04 34.362488 -118.881555 123 15028ft 300kts
16-Dec-20 11:05 34.327334 -118.790358 109 15046ft 299kts
16-Dec-20 11:06 34.296607 -118.696700 109 15047ft 300kts
16-Dec-20 11:07 34.265901 -118.602912 108 15048ft 300kts
16-Dec-20 11:08 34.235208 -118.509385 108 15013ft 300kts
16-Dec-20 11:09 34.204322 -118.415550 108 14999ft 300kts
16-Dec-20 11:10 34.173308 -118.321624 109 14984ft 300kts
16-Dec-20 11:11 34.118751 -118.249655 152 14966ft 303kts
16-Dec-20 11:12 34.043066 -118.204274 155 14972ft 303kts
16-Dec-20 11:13 33.967045 -118.160361 155 14983ft 303kts
16-Dec-20 11:14 33.891023 -118.116588 155 14980ft 304kts
16-Dec-20 11:15 33.814787 -118.072781 155 14979ft 303kts
16-Dec-20 11:16 33.747891 -118.012591 134 14982ft 303kts
16-Dec-20 11:17 33.687825 -117.941771 134 14985ft 303kts
16-Dec-20 11:18 33.627736 -117.870874 134 14998ft 303kts
16-Dec-20 11:19 33.567587 -117.800060 134 14962ft 304kts
16-Dec-20 11:20 33.507419 -117.729380 134 14954ft 303kts
16-Dec-20 11:21 33.447146 -117.658709 134 14946ft 300kts
16-Dec-20 11:22 33.389209 -117.590915 134 14972ft 285kts
16-Dec-20 11:23 33.333190 -117.525466 134 14975ft 283kts
16-Dec-20 11:24 33.276613 -117.459526 134 14975ft 285kts
16-Dec-20 11:25 33.212405 -117.406419 159 14975ft 284kts
16-Dec-20 11:26 33.139722 -117.375166 160 13679ft 259kts
16-Dec-20 11:27 33.075826 -117.348288 161 12090ft 228kts
16-Dec-20 11:28 33.019230 -117.324574 160 10089ft 207kts
16-Dec-20 11:29 32.967389 -117.302823 159 8135ft 189kts
16-Dec-20 11:30 32.918825 -117.282419 160 6993ft 192kts
16-Dec-20 11:31 32.867864 -117.261161 159 6978ft 190kts
16-Dec-20 11:32 32.818986 -117.240724 159 6981ft 185kts
16-Dec-20 11:33 32.780043 -117.209287 84 6783ft 177kts
16-Dec-20 11:34 32.782392 -117.151492 90 5997ft 170kts
16-Dec-20 11:35 32.780122 -117.092874 91 5983ft 178kts
16-Dec-20 11:36 32.772157 -117.036998 103 5329ft 160kts
16-Dec-20 11:37 32.760237 -116.987537 104 5145ft 164kts
16-Dec-20 11:39 32.726574 -116.953424 176 4361ft 166kts
16-Dec-20 11:40 32.692653 -116.975872 242 3739ft 126kts
16-Dec-20 11:41 32.690716 -117.014572 288 3189ft 128kts
16-Dec-20 11:42 32.700820 -117.055237 288 2330ft 115kts
16-Dec-20 11:43 32.708898 -117.091506 286 1975ft 122kts
16-Dec-20 11:44 32.718742 -117.128616 286 1171ft 112kts
16-Dec-20 11:45 32.726889 -117.162584 288 425ft 104kts
16-Dec-20 11:46 32.733641 -117.190075 285 22ft 32kts

Navigation Log

Ident Type
Flight plan parsing failed, navigation log unavailable